Saint Louis, Missouri
Traffic Map
Current Weather Conditions
Saint Louis, Missouri
Scattered Clouds
Scattered Clouds
18°
Feels Like: 18°
Wind Chill: 18° Ceiling: Unl
Heat Index: 18° Visibility: 10mi
Dew Point: 13° Wind: 6mph
Humidity: 75% Direction: 180° (S)
Pressure: 29.77in Gusts: 0mph
Raw Report DataKCPS 020853Z AUTO 18005KT 10SM SCT070 18/13 A2977 RMK AO2 SLP077 T01780133 58015
Traffic Incident Summary
Active as of:
Severity:
Category:
InformationThere was an issue retrieving the traffic information for this location. Please try a different location or try again shortly.
Advertisements
Track Severe Weather on mobile